Littleborough, United Kingdom
Current Conditions -  °F | °C
As of 5:50 PM on Friday 21 Nov 2014 (Local Time) from EGCC Reporting Station
Moderate Rain Moderate Rain  
Wind Chill: 41°   Ceiling: 3700
Heat Index: 46°   Visibility: 4mi
Dew Point: 43°   Wind: 10mph
Humidity: 87%   Direction: 130°SE
Pressure: 29.88"   Gusts: NA
Location:  53.65°N, 2.1°W
Report Text: EGCC 211750Z 13009KT 100V170 7000 RA SCT024 BKN037 08/06 Q1012 TEMPO 4000 +RA BKN012
Loading
Personal Weather Stations






























Interactive Weather Map New forecast layout! Learn more

10-Day Weather Forecast

Advertisements
Track Severe Weather on mobile